Terminal Aerodrome Forecast
Issued by NWS

Home | Current Version | Previous Version | Text Only | Print | Product List | Glossary On
Versions: 1 2 3 4 5 6 7 8 9 10 11 12 13 14 15 16 17
000
FTUS43 KPAH 271120
TAFCGI
TAF
KCGI 271120Z 2712/2812 13005KT P6SM OVC040
     FM271800 16006KT P6SM BKN035
     FM280000 14010KT P6SM SCT010 BKN030
     FM280600 17011G16KT P6SM VCSH BKN010=

USA.gov is the U.S. government's official web portal to all federal, state and local government web resources and services.